Elmer, New Jersey
Current Conditions -  °F | °C
As of 11:54 AM on Tuesday 21 Oct 2014 (Local Time) from KMIV Reporting Station
Few Clouds Few Clouds  
Wind Chill: 65°   Ceiling: Unl
Heat Index: 65°   Visibility: 10mi
Dew Point: 52°   Wind: 0mph
Humidity: 63%   Direction: NA
Pressure: 29.86"   Gusts: NA
Location:  39.6°N, 75.17°W
Report Text: KMIV 211554Z AUTO 00000KT 10SM FEW050 18/11 A2986 RMK AO2 SLP109 T01830111
Loading
Personal Weather Stations






























Interactive Weather Map
Tropical Storm Tracking
New forecast layout! Learn more

10-Day Weather Forecast

Advertisements
Track Severe Weather on mobile